Time;durP1;ratioP1;P1;durP2;ratioP2;P2;SDS_P1;SDS_P2;PMS_P1;PMS_P2;Temp;Humidity;BMP_temperature;BMP_pressure;BME280_temperature;BME280_humidity;BME280_pressure;Samples;Min_cycle;Max_cycle;Signal;HPM_P1;HPM_P2
2023/05/11 00:01:43;;;;;;;8.07;2.40;;;29.70;28.80;;;;;;5011306;28;20493;-63
2023/05/11 00:04:09;;;;;;;10.13;2.72;;;29.80;29.00;;;;;;5012902;28;20037;-60
2023/05/11 00:06:36;;;;;;;6.85;2.28;;;30.20;28.90;;;;;;5013160;28;20037;-60
2023/05/11 00:09:02;;;;;;;10.40;2.58;;;29.90;28.70;;;;;;5011397;28;20044;-59
2023/05/11 00:11:28;;;;;;;13.77;2.58;;;29.80;29.10;;;;;;5011502;28;20101;-62
2023/05/11 00:13:55;;;;;;;7.75;2.20;;;29.80;29.20;;;;;;5013713;28;20568;-61
2023/05/11 00:16:21;;;;;;;8.65;2.75;;;29.70;29.20;;;;;;5012008;28;20140;-62
2023/05/11 00:18:48;;;;;;;9.90;2.30;;;29.60;29.50;;;;;;5013717;28;20097;-60
2023/05/11 00:21:14;;;;;;;9.32;2.70;;;29.50;29.60;;;;;;5013473;28;20031;-60
2023/05/11 00:23:40;;;;;;;14.05;2.75;;;29.30;30.00;;;;;;5012746;28;20063;-60
2023/05/11 00:26:07;;;;;;;11.45;2.70;;;29.10;29.80;;;;;;5013201;28;20043;-60
2023/05/11 00:28:33;;;;;;;12.13;2.53;;;29.20;29.90;;;;;;5008666;28;20075;-62
2023/05/11 00:31:00;;;;;;;10.20;3.10;;;29.20;30.20;;;;;;5008187;28;20576;-63
2023/05/11 00:33:26;;;;;;;9.45;2.55;;;29.20;30.70;;;;;;5012815;28;20048;-61
2023/05/11 00:35:52;;;;;;;12.85;2.90;;;29.10;30.70;;;;;;5014084;28;20470;-60
2023/05/11 00:38:19;;;;;;;17.35;3.33;;;29.00;31.00;;;;;;5017014;28;20038;-63
2023/05/11 00:40:45;;;;;;;8.23;2.75;;;28.80;31.60;;;;;;5015284;28;20070;-64
2023/05/11 00:43:12;;;;;;;18.02;4.75;;;28.70;31.80;;;;;;5014697;28;20049;-61
2023/05/11 00:45:39;;;;;;;14.18;3.28;;;28.70;32.20;;;;;;5016374;28;20041;-59
2023/05/11 00:48:06;;;;;;;8.50;2.67;;;28.70;32.30;;;;;;5014023;28;20072;-61
2023/05/11 00:50:33;;;;;;;14.73;3.22;;;28.50;32.70;;;;;;5013230;28;20072;-61
2023/05/11 00:52:59;;;;;;;21.20;3.20;;;28.40;33.10;;;;;;5014561;28;20032;-65
2023/05/11 00:55:26;;;;;;;20.13;3.60;;;28.40;33.20;;;;;;5014210;28;20546;-65
2023/05/11 00:57:52;;;;;;;18.10;3.38;;;28.30;33.70;;;;;;5015064;28;20064;-62
2023/05/11 01:00:19;;;;;;;13.73;3.50;;;28.20;33.10;;;;;;5013244;28;20032;-61
2023/05/11 01:02:45;;;;;;;14.73;3.45;;;28.20;33.30;;;;;;5014278;28;20035;-68
2023/05/11 01:05:12;;;;;;;13.07;2.70;;;28.20;33.20;;;;;;5015437;28;20018;-67
2023/05/11 01:08:02;;;;;;;12.57;3.03;;;28.00;33.20;;;;;;5012571;28;20061;-65
2023/05/11 01:10:51;;;;;;;11.07;3.33;;;27.90;33.40;;;;;;5011981;28;20050;-69
2023/05/11 01:13:32;;;;;;;23.63;3.63;;;27.80;33.50;;;;;;5015464;28;20038;-63
2023/05/11 01:16:04;;;;;;;15.38;3.17;;;27.70;34.00;;;;;;5013134;28;20134;-61
2023/05/11 01:18:39;;;;;;;10.57;3.40;;;27.60;33.80;;;;;;5010518;28;20082;-66
2023/05/11 01:21:07;;;;;;;11.35;2.85;;;27.40;33.50;;;;;;5014173;28;20561;-66
2023/05/11 01:23:44;;;;;;;9.65;2.47;;;27.30;33.90;;;;;;5013019;28;20411;-69
2023/05/11 01:26:34;;;;;;;12.88;2.95;;;27.20;34.10;;;;;;5013441;28;20029;-68
2023/05/11 01:29:25;;;;;;;10.52;2.95;;;27.10;34.20;;;;;;5016343;28;20052;-66
2023/05/11 01:31:55;;;;;;;15.30;3.45;;;27.20;34.60;;;;;;5014805;28;20050;-67
2023/05/11 01:34:25;;;;;;;8.90;3.03;;;27.70;34.20;;;;;;5015903;28;20031;-68
2023/05/11 01:36:59;;;;;;;14.77;2.83;;;27.70;33.60;;;;;;5013890;28;20066;-66
2023/05/11 01:39:57;;;;;;;9.20;2.70;;;27.80;33.30;;;;;;5013751;28;20062;-66
2023/05/11 01:42:39;;;;;;;30.65;12.75;;;27.50;33.30;;;;;;4988700;28;20061;-69
2023/05/11 01:45:09;;;;;;;15.65;2.88;;;27.50;33.10;;;;;;5013021;28;20042;-67
2023/05/11 01:47:37;;;;;;;14.15;2.72;;;27.50;33.70;;;;;;5012315;28;20058;-69
2023/05/11 01:50:06;;;;;;;13.57;3.13;;;27.90;33.40;;;;;;5014829;28;20694;-70
2023/05/11 01:52:34;;;;;;;24.30;8.48;;;27.80;33.60;;;;;;5014749;28;20086;-63
2023/05/11 01:55:03;;;;;;;13.10;3.65;;;27.70;34.30;;;;;;5014972;28;20065;-64
2023/05/11 01:57:32;;;;;;;9.50;3.00;;;27.40;34.50;;;;;;5015124;28;20103;-64
2023/05/11 02:00:00;;;;;;;12.88;3.53;;;27.10;34.20;;;;;;5014543;28;20469;-64
2023/05/11 02:02:28;;;;;;;11.05;3.58;;;26.80;34.80;;;;;;5013561;28;20130;-66
2023/05/11 02:04:56;;;;;;;12.43;4.30;;;26.60;35.50;;;;;;5011989;28;20073;-64
2023/05/11 02:07:24;;;;;;;15.88;4.72;;;26.40;35.90;;;;;;5012488;28;20151;-64
2023/05/11 02:09:52;;;;;;;13.80;3.72;;;26.20;36.40;;;;;;5012946;28;20084;-67
2023/05/11 02:12:19;;;;;;;13.65;3.22;;;26.10;36.70;;;;;;5012733;28;20077;-66
2023/05/11 02:14:47;;;;;;;14.75;4.43;;;25.90;37.00;;;;;;5012574;28;20067;-67
2023/05/11 02:17:16;;;;;;;16.42;5.78;;;25.80;37.20;;;;;;5013097;28;20051;-68
2023/05/11 02:19:45;;;;;;;24.40;6.55;;;25.80;37.60;;;;;;5013278;28;20123;-64
2023/05/11 02:22:12;;;;;;;21.42;6.90;;;25.70;37.80;;;;;;5014721;28;20589;-70
2023/05/11 02:24:40;;;;;;;17.05;6.20;;;25.50;38.10;;;;;;5008627;28;20733;-71
2023/05/11 02:27:07;;;;;;;19.90;5.90;;;25.40;38.80;;;;;;5011697;28;20060;-69
2023/05/11 02:29:33;;;;;;;15.35;5.60;;;25.30;38.40;;;;;;5010507;28;20518;-67
2023/05/11 02:32:11;;;;;;;16.00;4.63;;;25.20;38.70;;;;;;5009146;28;20143;-68
2023/05/11 02:34:43;;;;;;;19.38;4.88;;;25.10;38.80;;;;;;4992504;28;20115;-68
2023/05/11 02:37:15;;;;;;;19.90;5.47;;;25.00;39.00;;;;;;5009187;28;20060;-68
2023/05/11 02:39:45;;;;;;;16.02;4.72;;;25.00;39.10;;;;;;5010752;28;20082;-67
2023/05/11 02:42:19;;;;;;;16.77;5.18;;;24.90;39.30;;;;;;5014292;28;20121;-67
2023/05/11 02:45:01;;;;;;;16.98;5.28;;;24.80;39.40;;;;;;5013947;28;20162;-68
2023/05/11 02:47:35;;;;;;;17.08;5.40;;;24.70;39.70;;;;;;5013530;28;20155;-69
2023/05/11 02:50:03;;;;;;;21.58;5.38;;;24.70;39.90;;;;;;5011069;28;20113;-69
2023/05/11 02:52:32;;;;;;;21.02;5.53;;;24.70;40.10;;;;;;5013575;28;20107;-68
2023/05/11 02:55:01;;;;;;;26.52;5.90;;;24.70;40.20;;;;;;5010249;28;20376;-70
2023/05/11 02:57:28;;;;;;;20.40;5.10;;;24.50;40.40;;;;;;5008783;28;20572;-68
2023/05/11 02:59:54;;;;;;;16.88;5.50;;;24.50;40.70;;;;;;5011199;28;20124;-70
2023/05/11 03:02:21;;;;;;;17.42;5.15;;;24.50;41.00;;;;;;5012301;28;20063;-70
2023/05/11 03:04:48;;;;;;;20.90;5.10;;;24.40;40.80;;;;;;5014025;28;20542;-69
2023/05/11 03:07:14;;;;;;;14.23;4.18;;;24.30;41.00;;;;;;5011612;28;20062;-68
2023/05/11 03:09:40;;;;;;;19.95;4.93;;;24.30;41.10;;;;;;5012494;28;20520;-69
2023/05/11 03:12:08;;;;;;;22.50;5.05;;;24.30;41.20;;;;;;5012707;28;20538;-69
2023/05/11 03:14:35;;;;;;;12.98;4.53;;;24.20;41.30;;;;;;5014697;28;20128;-69
2023/05/11 03:17:03;;;;;;;18.42;4.78;;;24.20;41.40;;;;;;5011144;28;20649;-67
2023/05/11 03:19:31;;;;;;;22.42;5.03;;;24.10;41.60;;;;;;5009721;28;20134;-68
2023/05/11 03:21:59;;;;;;;25.65;5.70;;;24.10;41.70;;;;;;5010232;28;20082;-66
2023/05/11 03:24:26;;;;;;;22.08;5.15;;;24.10;41.80;;;;;;5015069;28;20081;-68
2023/05/11 03:26:56;;;;;;;18.65;5.45;;;24.10;41.80;;;;;;5011065;28;20091;-66
2023/05/11 03:29:25;;;;;;;23.52;5.18;;;24.10;42.00;;;;;;5011133;28;20510;-66
2023/05/11 03:31:53;;;;;;;20.23;5.88;;;24.00;42.00;;;;;;5011279;28;20432;-69
2023/05/11 03:34:19;;;;;;;21.08;6.35;;;24.00;42.00;;;;;;5013504;28;20077;-68
2023/05/11 03:36:48;;;;;;;22.38;6.45;;;23.90;42.20;;;;;;5015111;28;20069;-69
2023/05/11 03:39:16;;;;;;;17.55;6.38;;;23.90;42.30;;;;;;5012748;28;20243;-69
2023/05/11 03:41:45;;;;;;;17.88;6.32;;;23.80;42.30;;;;;;5012960;28;20120;-68
2023/05/11 03:44:13;;;;;;;22.85;7.13;;;23.70;42.50;;;;;;5012849;28;20515;-68
2023/05/11 03:46:41;;;;;;;16.65;4.90;;;23.70;42.80;;;;;;5013049;28;20070;-68
2023/05/11 03:49:08;;;;;;;16.90;4.65;;;23.70;42.60;;;;;;5012022;28;20102;-65
2023/05/11 03:51:35;;;;;;;18.45;5.70;;;23.70;42.70;;;;;;5012053;28;20422;-67
2023/05/11 03:54:01;;;;;;;18.30;5.32;;;23.60;42.70;;;;;;5012364;28;20057;-67
2023/05/11 03:56:28;;;;;;;22.58;5.05;;;23.60;42.90;;;;;;5012361;28;20860;-68
2023/05/11 03:58:54;;;;;;;23.60;4.68;;;23.50;42.90;;;;;;4990503;28;20526;-67
2023/05/11 04:01:21;;;;;;;18.48;4.00;;;23.50;43.00;;;;;;4991660;28;20081;-70
2023/05/11 04:03:52;;;;;;;13.82;3.78;;;23.50;43.20;;;;;;5012983;28;20062;-70
2023/05/11 04:06:19;;;;;;;15.85;3.88;;;23.40;43.40;;;;;;5013080;28;20071;-71
2023/05/11 04:08:45;;;;;;;13.00;4.05;;;23.40;43.60;;;;;;5011050;28;20064;-69
2023/05/11 04:11:12;;;;;;;16.50;3.75;;;23.30;43.60;;;;;;5014506;28;20154;-70
2023/05/11 04:13:38;;;;;;;14.70;4.30;;;23.20;43.90;;;;;;5013388;28;20074;-72
2023/05/11 04:16:05;;;;;;;11.48;4.50;;;23.10;44.20;;;;;;5017522;28;20157;-68
2023/05/11 04:18:32;;;;;;;13.50;4.38;;;23.00;44.60;;;;;;5009290;28;20478;-70
2023/05/11 04:20:58;;;;;;;15.82;4.32;;;22.80;44.80;;;;;;5014178;28;20081;-70
2023/05/11 04:23:25;;;;;;;16.58;4.35;;;22.80;45.10;;;;;;5014816;28;20092;-69
2023/05/11 04:25:55;;;;;;;24.65;4.97;;;22.80;45.40;;;;;;5015812;28;20123;-69
2023/05/11 04:28:22;;;;;;;21.27;5.35;;;22.70;45.50;;;;;;4995153;28;20066;-68
2023/05/11 04:30:53;;;;;;;16.65;4.03;;;22.70;45.60;;;;;;5011710;28;20078;-68
2023/05/11 04:33:20;;;;;;;18.63;5.13;;;22.60;45.70;;;;;;5015418;28;20071;-66
2023/05/11 04:35:50;;;;;;;16.52;4.95;;;22.60;46.00;;;;;;5016525;28;20075;-67
2023/05/11 04:38:17;;;;;;;16.40;5.05;;;22.50;45.80;;;;;;5013135;28;20079;-69
2023/05/11 04:40:44;;;;;;;22.00;4.07;;;22.50;46.10;;;;;;5013873;28;20085;-72
2023/05/11 04:43:10;;;;;;;11.02;4.20;;;22.50;46.10;;;;;;5018355;28;20552;-68
2023/05/11 04:45:36;;;;;;;14.07;4.22;;;22.50;46.20;;;;;;5013326;28;20073;-70
2023/05/11 04:48:03;;;;;;;15.20;4.03;;;22.50;46.20;;;;;;5013924;28;20106;-72
2023/05/11 04:50:30;;;;;;;16.50;3.97;;;22.50;46.30;;;;;;5013117;28;20067;-70
2023/05/11 04:52:56;;;;;;;15.77;4.35;;;22.50;46.50;;;;;;5012519;28;20081;-68
2023/05/11 04:55:23;;;;;;;17.90;4.05;;;22.40;46.50;;;;;;5013728;28;20415;-65
2023/05/11 04:57:49;;;;;;;13.20;3.70;;;22.40;46.70;;;;;;5013770;28;20079;-65
2023/05/11 05:00:16;;;;;;;23.73;5.15;;;22.40;47.00;;;;;;5016002;28;20182;-67
2023/05/11 05:02:42;;;;;;;18.73;4.10;;;22.30;46.80;;;;;;5015476;28;20517;-68
2023/05/11 05:05:09;;;;;;;18.67;3.90;;;22.30;47.10;;;;;;5014194;28;20059;-65
2023/05/11 05:07:35;;;;;;;13.25;3.97;;;22.20;47.00;;;;;;5015551;28;20088;-65
2023/05/11 05:10:04;;;;;;;14.27;4.22;;;22.20;47.30;;;;;;5014449;28;20078;-68
2023/05/11 05:12:30;;;;;;;21.17;4.63;;;22.20;47.60;;;;;;5015669;28;20074;-67
2023/05/11 05:14:56;;;;;;;19.70;4.75;;;22.20;47.60;;;;;;5016779;28;20570;-68
2023/05/11 05:17:23;;;;;;;17.58;4.05;;;22.10;47.50;;;;;;5015869;28;20117;-67
2023/05/11 05:19:49;;;;;;;15.20;4.07;;;22.10;47.50;;;;;;5014147;28;20077;-66
2023/05/11 05:22:16;;;;;;;14.88;3.95;;;22.10;47.40;;;;;;4992354;28;20074;-70
2023/05/11 05:24:42;;;;;;;16.15;3.63;;;22.10;47.50;;;;;;5015376;28;20106;-70
2023/05/11 05:27:08;;;;;;;15.52;3.88;;;22.00;47.40;;;;;;5015605;28;20188;-68
2023/05/11 05:29:35;;;;;;;13.13;3.60;;;22.10;47.30;;;;;;5013278;28;20117;-71
2023/05/11 05:32:01;;;;;;;10.63;3.38;;;22.10;47.20;;;;;;4994273;28;20233;-71
2023/05/11 05:34:27;;;;;;;13.50;3.42;;;22.10;47.10;;;;;;5015655;28;20067;-67
2023/05/11 05:36:54;;;;;;;15.38;4.40;;;22.00;47.00;;;;;;5015734;28;20550;-64
2023/05/11 05:39:20;;;;;;;15.50;3.95;;;22.00;46.90;;;;;;5012267;28;20110;-62
2023/05/11 05:41:47;;;;;;;12.73;3.70;;;21.90;47.00;;;;;;5014806;28;20074;-66
2023/05/11 05:44:13;;;;;;;12.07;4.32;;;21.90;47.10;;;;;;5015953;28;20157;-68
2023/05/11 05:46:39;;;;;;;19.55;4.00;;;21.90;46.90;;;;;;5013419;28;20094;-70
2023/05/11 05:49:06;;;;;;;11.00;4.68;;;21.90;47.20;;;;;;5013405;28;20113;-70
2023/05/11 05:51:32;;;;;;;17.40;7.40;;;21.80;47.00;;;;;;5012879;28;20467;-68
2023/05/11 05:53:59;;;;;;;17.13;8.50;;;21.80;47.40;;;;;;5012568;28;20558;-66
2023/05/11 05:56:26;;;;;;;15.38;3.78;;;21.80;47.20;;;;;;5011175;28;20175;-67
2023/05/11 05:58:52;;;;;;;14.48;3.65;;;21.80;47.50;;;;;;5012413;28;20067;-68
2023/05/11 06:01:18;;;;;;;12.57;3.40;;;21.70;47.50;;;;;;5010213;28;20101;-66
2023/05/11 06:03:45;;;;;;;14.27;4.00;;;21.70;48.00;;;;;;5010575;28;20149;-65
2023/05/11 06:06:11;;;;;;;16.60;3.97;;;21.70;48.00;;;;;;5011788;28;20117;-62
2023/05/11 06:08:38;;;;;;;10.75;3.83;;;21.70;48.30;;;;;;5012343;28;20111;-61
2023/05/11 06:11:04;;;;;;;12.70;3.03;;;21.60;48.40;;;;;;5012040;28;20158;-62
2023/05/11 06:13:30;;;;;;;11.65;3.20;;;21.60;48.90;;;;;;5012419;28;20464;-62
2023/05/11 06:15:57;;;;;;;14.38;3.88;;;21.50;49.20;;;;;;5012027;28;20089;-67
2023/05/11 06:18:23;;;;;;;17.02;3.15;;;21.40;49.60;;;;;;5011753;28;20162;-63
2023/05/11 06:20:50;;;;;;;35.95;17.27;;;21.30;50.10;;;;;;5013586;28;21240;-72
2023/05/11 06:23:16;;;;;;;20.63;6.38;;;21.20;50.30;;;;;;5013052;28;20478;-71
2023/05/11 06:25:43;;;;;;;10.90;3.75;;;21.10;50.40;;;;;;5014214;28;20077;-74
2023/05/11 06:28:09;;;;;;;10.73;3.42;;;21.20;50.10;;;;;;5014170;28;20460;-71
2023/05/11 06:30:35;;;;;;;12.95;3.03;;;21.20;50.00;;;;;;5012958;28;20082;-70
2023/05/11 06:33:02;;;;;;;16.00;3.47;;;21.20;50.20;;;;;;5013857;28;20076;-70
2023/05/11 06:35:29;;;;;;;9.55;2.72;;;21.00;50.70;;;;;;5013955;28;20136;-70
2023/05/11 06:37:56;;;;;;;12.57;3.60;;;20.90;50.80;;;;;;5012494;28;20511;-67
2023/05/11 06:40:22;;;;;;;17.10;3.50;;;20.90;51.00;;;;;;4997876;28;20117;-69
2023/05/11 06:42:48;;;;;;;9.55;3.20;;;20.80;51.10;;;;;;5012990;28;20511;-67
2023/05/11 06:45:15;;;;;;;13.00;3.35;;;20.90;51.30;;;;;;5013924;28;20072;-68
2023/05/11 06:47:41;;;;;;;13.25;3.72;;;20.90;51.50;;;;;;5013596;28;20065;-67
2023/05/11 06:50:08;;;;;;;15.65;3.70;;;20.90;51.50;;;;;;5012110;28;20599;-67
2023/05/11 06:52:35;;;;;;;15.88;3.05;;;20.90;51.40;;;;;;4998106;28;20118;-67
2023/05/11 06:55:02;;;;;;;11.10;3.10;;;20.80;51.60;;;;;;5011921;28;20083;-69
2023/05/11 06:57:29;;;;;;;9.98;3.55;;;20.70;52.00;;;;;;5011601;28;20093;-67
2023/05/11 06:59:55;;;;;;;15.30;3.15;;;20.60;51.80;;;;;;5012254;28;20111;-70
2023/05/11 07:02:21;;;;;;;8.07;2.80;;;20.50;51.70;;;;;;5011779;28;20065;-69
2023/05/11 07:04:48;;;;;;;15.02;2.40;;;20.40;51.80;;;;;;5011455;28;20076;-68
2023/05/11 07:07:15;;;;;;;8.77;2.50;;;20.40;51.40;;;;;;5011873;28;20068;-71
2023/05/11 07:09:41;;;;;;;8.60;3.17;;;20.40;51.50;;;;;;5010852;28;20087;-69
2023/05/11 07:12:07;;;;;;;11.32;2.40;;;20.40;51.30;;;;;;5012718;28;20074;-69
2023/05/11 07:14:34;;;;;;;9.63;3.38;;;20.40;51.40;;;;;;5012887;28;20059;-69
2023/05/11 07:17:00;;;;;;;12.80;3.45;;;20.40;51.80;;;;;;5014231;28;20174;-68
2023/05/11 07:19:27;;;;;;;10.60;3.55;;;20.50;52.10;;;;;;5013120;28;20101;-68
2023/05/11 07:21:53;;;;;;;9.13;3.38;;;20.40;52.60;;;;;;5013675;28;20165;-70
2023/05/11 07:24:20;;;;;;;16.77;4.15;;;20.20;53.00;;;;;;5013919;28;20080;-70
2023/05/11 07:26:47;;;;;;;10.07;3.53;;;20.10;53.60;;;;;;5013240;28;20065;-69
2023/05/11 07:29:14;;;;;;;11.85;3.35;;;20.20;53.60;;;;;;5013360;28;20082;-67
2023/05/11 07:31:41;;;;;;;10.63;3.25;;;20.20;53.60;;;;;;4994153;28;20523;-68
2023/05/11 07:34:08;;;;;;;17.45;3.30;;;20.10;54.00;;;;;;5012358;28;20068;-67
2023/05/11 07:36:34;;;;;;;12.93;3.20;;;20.00;54.00;;;;;;5013222;28;20070;-68
2023/05/11 07:39:01;;;;;;;14.98;3.10;;;20.00;53.80;;;;;;5012752;28;20104;-68
2023/05/11 07:41:28;;;;;;;10.07;2.83;;;19.90;54.20;;;;;;5013369;28;20075;-66
2023/05/11 07:43:54;;;;;;;8.48;3.03;;;19.90;54.40;;;;;;5013486;28;20451;-69
2023/05/11 07:46:21;;;;;;;9.73;3.25;;;20.00;54.10;;;;;;5015581;28;20094;-68
2023/05/11 07:48:47;;;;;;;11.82;2.92;;;20.00;53.90;;;;;;5014666;28;20111;-68
2023/05/11 07:51:13;;;;;;;7.25;2.85;;;20.00;53.90;;;;;;5016909;28;20072;-68
2023/05/11 07:53:40;;;;;;;9.05;2.60;;;20.10;53.90;;;;;;5017427;28;20521;-68
2023/05/11 07:56:06;;;;;;;12.70;3.17;;;19.90;54.30;;;;;;5017978;28;20086;-68
2023/05/11 07:58:33;;;;;;;14.85;3.45;;;19.70;54.70;;;;;;5016534;28;20436;-67
2023/05/11 08:00:59;;;;;;;8.10;2.83;;;19.70;54.80;;;;;;5015639;28;20083;-67
2023/05/11 08:03:25;;;;;;;10.25;2.65;;;19.70;55.50;;;;;;4998588;28;20135;-70
2023/05/11 08:05:52;;;;;;;6.72;2.50;;;19.60;55.50;;;;;;5015362;28;20072;-70
2023/05/11 08:08:18;;;;;;;10.88;3.22;;;19.60;55.40;;;;;;5015342;28;20134;-68
2023/05/11 08:10:45;;;;;;;8.45;3.08;;;19.60;55.20;;;;;;5017505;28;20071;-69
2023/05/11 08:13:11;;;;;;;11.80;3.40;;;19.60;54.90;;;;;;5017352;28;20553;-69
2023/05/11 08:15:37;;;;;;;13.95;3.05;;;19.50;54.90;;;;;;5016548;28;20218;-69
2023/05/11 08:18:05;;;;;;;13.35;2.90;;;19.50;55.20;;;;;;5016688;28;20553;-68
2023/05/11 08:20:31;;;;;;;11.18;3.33;;;19.60;55.20;;;;;;5016642;28;20088;-68
2023/05/11 08:22:57;;;;;;;9.15;2.80;;;19.50;55.10;;;;;;5016149;28;20436;-67
2023/05/11 08:25:24;;;;;;;13.38;3.17;;;19.60;54.90;;;;;;5016110;28;20080;-70
2023/05/11 08:27:50;;;;;;;17.48;3.63;;;19.50;55.00;;;;;;5015141;28;20540;-70
2023/05/11 08:30:17;;;;;;;9.00;2.72;;;19.50;54.90;;;;;;5014439;28;20096;-71
2023/05/11 08:32:44;;;;;;;8.75;3.00;;;19.50;55.10;;;;;;5015254;28;20075;-71
2023/05/11 08:35:10;;;;;;;10.65;2.97;;;19.40;55.20;;;;;;5015345;28;20076;-70
2023/05/11 08:37:36;;;;;;;10.40;3.00;;;19.20;55.30;;;;;;5013572;28;20137;-67
2023/05/11 08:40:03;;;;;;;13.07;3.55;;;19.30;55.30;;;;;;5014824;28;20095;-63
2023/05/11 08:42:36;;;;;;;12.18;3.20;;;19.30;55.20;;;;;;5014548;28;20065;-68
2023/05/11 08:45:04;;;;;;;8.85;2.95;;;19.30;55.00;;;;;;5013207;28;20064;-65
2023/05/11 08:47:32;;;;;;;9.27;3.13;;;19.30;55.20;;;;;;5014200;28;20479;-70
2023/05/11 08:49:59;;;;;;;14.23;3.38;;;19.30;55.20;;;;;;5016734;28;20471;-70
2023/05/11 08:52:26;;;;;;;13.70;3.17;;;19.40;55.60;;;;;;5015978;28;20068;-70
2023/05/11 08:54:53;;;;;;;14.82;3.67;;;19.30;54.90;;;;;;5014462;28;20082;-69
2023/05/11 08:57:20;;;;;;;11.80;3.58;;;19.40;55.20;;;;;;5013438;28;20084;-70
2023/05/11 08:59:47;;;;;;;13.20;3.30;;;19.20;55.50;;;;;;5013433;28;20514;-70
2023/05/11 09:02:17;;;;;;;10.85;3.00;;;19.20;55.50;;;;;;5014866;28;20494;-70
2023/05/11 09:04:45;;;;;;;8.60;2.70;;;19.20;55.80;;;;;;5015347;28;20155;-69
2023/05/11 09:07:15;;;;;;;8.93;2.70;;;19.20;55.70;;;;;;5013708;28;20525;-69
2023/05/11 09:09:41;;;;;;;11.70;2.88;;;19.20;55.80;;;;;;5013816;28;20079;-69
2023/05/11 09:12:08;;;;;;;10.02;2.80;;;19.10;55.90;;;;;;5013772;28;20101;-70
2023/05/11 09:14:35;;;;;;;11.07;2.85;;;19.10;56.00;;;;;;5017442;28;20597;-69
2023/05/11 09:17:03;;;;;;;10.60;2.80;;;19.10;56.10;;;;;;5013302;28;20131;-68
2023/05/11 09:19:30;;;;;;;12.98;2.80;;;19.10;56.50;;;;;;4997760;28;20087;-69
2023/05/11 09:21:59;;;;;;;12.80;3.50;;;19.00;56.20;;;;;;5014696;28;20286;-70
2023/05/11 09:24:26;;;;;;;12.30;2.90;;;19.00;56.10;;;;;;5013404;28;20216;-70
2023/05/11 09:27:09;;;;;;;11.70;3.40;;;18.90;56.70;;;;;;5013460;28;20084;-69
2023/05/11 09:29:35;;;;;;;14.00;2.70;;;18.90;56.70;;;;;;5013583;28;20068;-69
2023/05/11 09:32:01;;;;;;;13.88;3.40;;;18.90;56.60;;;;;;5014321;28;20166;-69
2023/05/11 09:34:28;;;;;;;10.68;2.80;;;18.90;56.80;;;;;;5015779;28;20074;-70
2023/05/11 09:36:56;;;;;;;14.80;3.10;;;18.90;57.00;;;;;;5013916;28;20146;-69
2023/05/11 09:39:34;;;;;;;9.63;2.78;;;18.70;56.90;;;;;;5011355;28;20178;-71
2023/05/11 09:42:17;;;;;;;12.15;3.33;;;18.70;56.90;;;;;;5013222;28;20095;-69
2023/05/11 09:44:46;;;;;;;11.05;3.33;;;18.80;57.00;;;;;;5013692;28;20434;-70
2023/05/11 09:47:14;;;;;;;13.23;3.05;;;18.60;57.60;;;;;;5014982;28;20169;-70
2023/05/11 09:49:42;;;;;;;13.52;3.00;;;18.60;57.20;;;;;;5013707;28;20119;-70
2023/05/11 09:52:14;;;;;;;10.23;3.40;;;18.60;57.20;;;;;;5012783;28;20564;-69
2023/05/11 09:54:45;;;;;;;11.07;2.88;;;18.60;57.10;;;;;;5011613;28;20168;-70
2023/05/11 09:57:26;;;;;;;11.70;2.80;;;18.60;57.10;;;;;;5013227;28;20088;-70
2023/05/11 09:59:55;;;;;;;17.38;2.97;;;18.50;57.20;;;;;;5011853;28;20089;-70
2023/05/11 10:02:26;;;;;;;11.70;3.08;;;18.40;57.30;;;;;;5014529;28;21218;-69
2023/05/11 10:05:00;;;;;;;9.38;2.90;;;18.50;57.40;;;;;;5012480;28;20080;-69
2023/05/11 10:07:27;;;;;;;11.02;2.75;;;18.60;57.20;;;;;;5012023;28;20067;-70
2023/05/11 10:09:55;;;;;;;11.68;2.78;;;18.60;57.20;;;;;;4998147;28;20170;-69
2023/05/11 10:12:24;;;;;;;21.77;3.53;;;18.60;57.10;;;;;;5012924;28;20077;-69
2023/05/11 10:14:54;;;;;;;11.98;2.70;;;18.40;57.00;;;;;;5014577;28;20072;-67
2023/05/11 10:17:21;;;;;;;9.65;3.17;;;18.50;57.20;;;;;;5012342;28;20590;-69
2023/05/11 10:19:49;;;;;;;11.85;3.00;;;18.50;57.00;;;;;;5012881;28;20085;-70
2023/05/11 10:22:16;;;;;;;8.73;2.70;;;18.50;56.70;;;;;;5012947;28;20068;-69
2023/05/11 10:24:43;;;;;;;10.60;2.95;;;18.50;56.60;;;;;;5013368;28;20060;-69
2023/05/11 10:27:12;;;;;;;13.30;3.05;;;18.40;56.50;;;;;;5014313;28;20078;-69
2023/05/11 10:29:39;;;;;;;14.30;3.15;;;18.50;56.60;;;;;;5012789;28;20092;-68
2023/05/11 10:32:07;;;;;;;12.07;3.47;;;18.40;56.30;;;;;;5012006;28;20536;-71
2023/05/11 10:34:34;;;;;;;14.27;3.70;;;18.40;56.20;;;;;;5013409;28;20072;-69
2023/05/11 10:37:01;;;;;;;10.70;3.15;;;18.40;56.30;;;;;;5013359;28;20170;-69
2023/05/11 10:39:29;;;;;;;16.98;4.68;;;18.40;56.30;;;;;;5013172;28;20494;-68
2023/05/11 10:42:07;;;;;;;20.30;5.05;;;18.40;56.30;;;;;;5012112;28;20085;-68
2023/05/11 10:44:48;;;;;;;16.60;4.38;;;18.40;56.20;;;;;;5014691;28;20087;-69
2023/05/11 10:47:33;;;;;;;21.52;5.03;;;18.50;56.30;;;;;;5011539;28;20069;-68
2023/05/11 10:50:24;;;;;;;18.08;4.68;;;18.50;56.00;;;;;;5012105;28;20130;-71
2023/05/11 10:52:57;;;;;;;26.55;4.90;;;18.60;55.70;;;;;;5012709;28;20065;-69
2023/05/11 10:55:34;;;;;;;16.58;4.45;;;18.60;55.60;;;;;;5011526;28;20074;-67
2023/05/11 10:58:09;;;;;;;21.10;4.55;;;18.40;56.00;;;;;;5012511;28;20094;-69
2023/05/11 11:01:29;;;;;;;15.07;4.25;;;18.40;56.00;;;;;;5012482;28;20076;-69
2023/05/11 11:04:01;;;;;;;20.85;4.75;;;18.30;56.20;;;;;;4897243;29;20126;-69
2023/05/11 11:06:28;;;;;;;21.58;4.97;;;18.20;55.60;;;;;;4896117;29;20147;-69
2023/05/11 11:08:56;;;;;;;22.25;4.70;;;18.30;56.00;;;;;;4898285;29;20166;-70
2023/05/11 11:11:34;;;;;;;16.55;5.68;;;18.30;55.80;;;;;;4896352;29;20102;-69
2023/05/11 11:14:04;;;;;;;14.32;4.70;;;18.40;55.30;;;;;;4897360;29;20520;-69
2023/05/11 11:16:40;;;;;;;21.25;5.32;;;18.40;55.10;;;;;;4895863;29;20073;-70
2023/05/11 11:19:28;;;;;;;12.63;4.85;;;18.30;55.00;;;;;;4894291;29;20101;-68
2023/05/11 11:22:00;;;;;;;16.40;5.47;;;18.30;55.20;;;;;;4895625;29;20071;-69
2023/05/11 11:24:38;;;;;;;24.60;5.10;;;18.30;55.40;;;;;;4896470;29;20099;-68
2023/05/11 11:27:05;;;;;;;17.85;5.07;;;18.40;55.30;;;;;;4894783;29;20079;-69
2023/05/11 11:29:33;;;;;;;16.75;5.20;;;18.40;55.00;;;;;;4895437;29;20095;-69
2023/05/11 11:32:21;;;;;;;18.70;5.00;;;18.50;55.20;;;;;;4897266;29;20115;-69
2023/05/11 11:34:48;;;;;;;18.90;5.10;;;18.40;55.00;;;;;;4895440;29;20104;-69
2023/05/11 11:37:16;;;;;;;19.83;4.57;;;18.40;55.20;;;;;;4921792;28;20083;-70
2023/05/11 11:39:43;;;;;;;29.60;5.47;;;18.30;55.30;;;;;;5009592;28;20084;-69
2023/05/11 11:42:11;;;;;;;27.33;5.10;;;18.30;55.50;;;;;;5010858;28;20163;-69
2023/05/11 11:44:39;;;;;;;21.77;5.30;;;18.30;55.70;;;;;;5013263;28;20073;-69
2023/05/11 11:47:16;;;;;;;18.38;4.93;;;18.40;55.60;;;;;;4997407;28;20080;-69
2023/05/11 11:49:47;;;;;;;17.38;5.20;;;18.40;55.40;;;;;;5010077;28;20526;-69
2023/05/11 11:52:32;;;;;;;16.95;5.57;;;18.30;55.60;;;;;;5011047;28;20160;-68
2023/05/11 11:55:00;;;;;;;12.55;4.20;;;18.20;55.70;;;;;;5012223;28;20154;-69
2023/05/11 11:57:32;;;;;;;20.10;4.60;;;18.20;56.20;;;;;;5011931;28;20084;-68
2023/05/11 12:00:12;;;;;;;15.10;4.57;;;18.20;56.10;;;;;;5011150;28;20541;-69
2023/05/11 12:02:43;;;;;;;17.25;4.43;;;18.30;56.00;;;;;;5013249;28;20079;-70
2023/05/11 12:05:18;;;;;;;15.60;4.75;;;18.30;56.20;;;;;;5010629;28;20084;-68
2023/05/11 12:07:47;;;;;;;21.58;4.65;;;18.20;56.20;;;;;;5012372;28;20451;-68
2023/05/11 12:10:16;;;;;;;15.50;4.55;;;18.20;56.20;;;;;;5012946;28;20068;-70
2023/05/11 12:12:53;;;;;;;18.70;4.10;;;18.20;56.20;;;;;;5012324;28;20084;-70
2023/05/11 12:15:28;;;;;;;15.80;4.30;;;18.10;56.40;;;;;;4995546;28;20159;-70
2023/05/11 12:17:55;;;;;;;16.35;4.20;;;18.10;56.70;;;;;;5012208;28;20115;-71
2023/05/11 12:20:22;;;;;;;20.48;4.40;;;18.10;56.80;;;;;;5012607;28;20259;-69
2023/05/11 12:22:49;;;;;;;16.10;4.20;;;18.10;56.80;;;;;;5012852;28;20505;-68
2023/05/11 12:25:19;;;;;;;21.92;4.15;;;18.10;56.80;;;;;;5010688;28;20151;-71
2023/05/11 12:28:01;;;;;;;11.98;4.28;;;17.90;57.20;;;;;;5012951;28;20058;-69
2023/05/11 12:30:33;;;;;;;21.48;4.25;;;17.90;57.50;;;;;;5009114;28;20179;-69
2023/05/11 12:33:02;;;;;;;17.13;4.65;;;17.80;58.20;;;;;;5014324;28;20106;-68
2023/05/11 12:35:33;;;;;;;20.83;5.15;;;17.80;57.50;;;;;;5015886;28;20085;-69
2023/05/11 12:38:03;;;;;;;22.67;4.57;;;17.80;57.70;;;;;;5014552;28;20304;-69
2023/05/11 12:40:30;;;;;;;18.27;4.45;;;17.80;57.50;;;;;;5014905;28;20089;-69
2023/05/11 12:42:58;;;;;;;25.80;4.97;;;17.70;57.70;;;;;;5013827;28;20111;-68
2023/05/11 12:45:26;;;;;;;17.60;4.25;;;17.70;58.10;;;;;;5018117;28;20499;-70
2023/05/11 12:47:54;;;;;;;18.02;3.90;;;17.80;58.30;;;;;;5014574;28;20532;-68